Time;durP1;ratioP1;P1;durP2;ratioP2;P2;SDS_P1;SDS_P2;PMS_P1;PMS_P2;Temp;Humidity;BMP_temperature;BMP_pressure;BME280_temperature;BME280_humidity;BME280_pressure;Samples;Min_cycle;Max_cycle;Signal;HPM_P1;HPM_P2
2024/01/03 00:01:22;;;;;;;0.57;0.50;;;;;;;-18.90;53.51;99278.19;5081263;28;20043;-58
2024/01/03 00:03:48;;;;;;;1.00;0.90;;;;;;;-18.93;52.72;99275.47;5084421;28;20048;-58
2024/01/03 00:06:15;;;;;;;1.65;0.75;;;;;;;-18.94;53.02;99280.34;5086351;28;20047;-58
2024/01/03 00:08:41;;;;;;;0.47;0.45;;;;;;;-18.95;53.04;99301.75;5087017;28;20054;-53
2024/01/03 00:11:07;;;;;;;0.88;0.63;;;;;;;-19.07;53.27;99273.59;5082806;28;20512;-53
2024/01/03 00:13:53;;;;;;;3.50;0.60;;;;;;;-19.05;53.41;99295.25;5069500;28;20047;-56
2024/01/03 00:16:20;;;;;;;3.13;0.77;;;;;;;-19.14;53.28;99292.09;5081721;28;20039;-54
2024/01/03 00:18:58;;;;;;;0.95;0.70;;;;;;;-19.24;52.90;99276.44;5079144;28;20098;-54
2024/01/03 00:21:26;;;;;;;0.70;0.35;;;;;;;-19.17;53.03;99294.34;5081924;28;20111;-58
2024/01/03 00:24:02;;;;;;;3.58;2.05;;;;;;;-19.18;52.28;99280.25;5082470;28;20173;-57
2024/01/03 00:26:30;;;;;;;0.70;0.65;;;;;;;-19.20;52.85;99281.72;5080918;28;20058;-58
2024/01/03 00:28:56;;;;;;;8.20;3.97;;;;;;;-19.21;53.04;99281.66;5078262;28;20097;-55
2024/01/03 00:31:25;;;;;;;4.32;1.10;;;;;;;-19.21;53.36;99282.50;5067962;28;20081;-59
2024/01/03 00:33:51;;;;;;;1.45;0.63;;;;;;;-19.24;53.15;99284.72;5079370;28;20041;-57
2024/01/03 00:36:17;;;;;;;0.90;0.80;;;;;;;-19.25;52.45;99279.66;5084526;28;20048;-57
2024/01/03 00:38:43;;;;;;;2.50;1.35;;;;;;;-19.59;52.73;99237.59;5084313;28;20537;-57
2024/01/03 00:41:09;;;;;;;1.13;0.65;;;;;;;-19.32;52.86;99289.88;5050984;28;20059;-54
2024/01/03 00:43:39;;;;;;;0.43;0.43;;;;;;;-19.49;52.36;99249.91;5081643;28;20092;-58
2024/01/03 00:46:05;;;;;;;;;;;;;;;-19.40;53.30;99259.59;5083275;28;20514;-56
2024/01/03 00:48:31;;;;;;;1.02;0.45;;;;;;;-19.49;52.38;99257.34;5067870;28;19920;-53
2024/01/03 00:50:58;;;;;;;0.70;0.70;;;;;;;-19.50;52.48;99249.78;5061728;28;21420;-58
2024/01/03 00:53:24;;;;;;;0.80;0.57;;;;;;;-19.85;52.64;99215.84;5075505;28;20093;-57
2024/01/03 00:55:50;;;;;;;1.33;1.23;;;;;;;-19.61;52.18;99236.63;5084332;28;20518;-57
2024/01/03 00:58:17;;;;;;;0.45;0.38;;;;;;;-19.63;52.05;99235.66;5067777;28;20048;-54
2024/01/03 01:00:43;;;;;;;2.83;0.60;;;;;;;-19.96;53.13;99186.97;5064621;28;20583;-57
2024/01/03 01:03:09;;;;;;;1.88;1.08;;;;;;;-19.72;52.35;99230.00;5081628;28;20042;-57
2024/01/03 01:05:34;;;;;;;3.15;1.63;;;;;;;-19.85;52.77;99196.06;5045825;28;20126;-55
2024/01/03 01:08:02;;;;;;;2.03;0.93;;;;;;;-19.61;52.64;99231.66;5084448;28;20504;-58
2024/01/03 01:10:28;;;;;;;2.08;0.50;;;;;;;-19.58;52.34;99236.00;5080450;28;20131;-56
2024/01/03 01:12:54;;;;;;;0.82;0.68;;;;;;;-19.55;53.03;99224.72;5083967;28;20427;-57
2024/01/03 01:15:20;;;;;;;1.98;0.40;;;;;;;-19.73;53.10;99183.78;5085265;28;20043;-52
2024/01/03 01:17:47;;;;;;;0.98;0.50;;;;;;;-19.52;52.61;99229.88;5069438;28;20484;-51
2024/01/03 01:20:13;;;;;;;0.25;0.25;;;;;;;-19.55;52.96;99223.84;5082644;28;20036;-55
2024/01/03 01:22:39;;;;;;;0.98;0.10;;;;;;;-19.82;52.81;99183.06;5081629;28;20091;-55
2024/01/03 01:25:05;;;;;;;1.77;0.68;;;;;;;-19.78;53.03;99196.53;5079928;28;20218;-58
2024/01/03 01:27:31;;;;;;;3.78;1.55;;;;;;;-19.65;53.53;99214.00;5083649;28;20499;-57
2024/01/03 01:29:57;;;;;;;3.55;0.70;;;;;;;-19.56;53.09;99246.84;5085356;28;20083;-56
2024/01/03 01:32:22;;;;;;;4.13;0.77;;;;;;;-19.58;52.74;99245.88;5086130;28;20047;-58
2024/01/03 01:34:48;;;;;;;2.25;1.05;;;;;;;-19.65;53.24;99246.16;5080586;28;20044;-59
2024/01/03 01:37:15;;;;;;;1.45;0.43;;;;;;;-19.61;53.12;99258.88;5082726;28;20040;-56
2024/01/03 01:39:44;;;;;;;3.53;1.02;;;;;;;-19.68;53.29;99255.84;5079942;28;20043;-56
2024/01/03 01:42:10;;;;;;;4.50;1.75;;;;;;;-19.63;52.54;99264.47;5069873;28;20835;-55
2024/01/03 01:44:36;;;;;;;1.83;0.47;;;;;;;-20.00;52.74;99207.28;5083781;28;20453;-56
2024/01/03 01:47:05;;;;;;;1.42;0.75;;;;;;;-19.69;52.54;99257.44;5088200;28;20048;-56
2024/01/03 01:49:32;;;;;;;0.45;0.30;;;;;;;-19.70;52.43;99264.75;5086959;28;20572;-58
2024/01/03 01:51:58;;;;;;;3.92;1.30;;;;;;;-20.06;53.00;99208.41;5077408;28;20044;-59
2024/01/03 01:54:25;;;;;;;1.52;0.57;;;;;;;-19.94;52.97;99234.94;5064791;28;20051;-59
2024/01/03 01:56:51;;;;;;;1.33;1.00;;;;;;;-19.75;52.44;99266.88;5068263;28;20625;-58
2024/01/03 01:59:19;;;;;;;1.13;0.60;;;;;;;-19.77;53.16;99262.53;5085285;28;20044;-59
2024/01/03 02:01:46;;;;;;;1.77;0.22;;;;;;;-19.87;53.21;99247.00;5070587;28;20096;-56
2024/01/03 02:04:12;;;;;;;3.97;0.55;;;;;;;-19.82;52.44;99257.25;5083636;28;20081;-58
2024/01/03 02:06:37;;;;;;;1.08;0.52;;;;;;;-19.76;52.10;99259.34;5081722;28;20031;-58
2024/01/03 02:09:03;;;;;;;0.95;0.63;;;;;;;-19.74;52.26;99267.75;5086023;28;20032;-58
2024/01/03 02:11:29;;;;;;;3.85;0.82;;;;;;;-19.80;53.09;99265.66;5078689;28;20040;-59
2024/01/03 02:13:55;;;;;;;1.27;0.40;;;;;;;-19.83;52.49;99253.91;5077743;28;20031;-56
2024/01/03 02:16:22;;;;;;;0.20;0.17;;;;;;;-19.82;52.02;99257.25;5087038;28;20038;-60
2024/01/03 02:18:48;;;;;;;0.47;0.40;;;;;;;-20.20;52.74;99199.97;5091114;28;20047;-58
2024/01/03 02:21:34;;;;;;;2.88;0.80;;;;;;;-19.89;52.56;99255.94;5086761;28;20664;-55
2024/01/03 02:24:00;;;;;;;0.68;0.60;;;;;;;-19.87;52.01;99258.50;5086703;28;20075;-58
2024/01/03 02:26:26;;;;;;;1.60;1.23;;;;;;;-19.94;52.19;99251.41;5083942;28;20074;-63
2024/01/03 02:28:52;;;;;;;1.45;0.55;;;;;;;-19.97;52.56;99252.00;5079661;28;20048;-56
2024/01/03 02:31:18;;;;;;;0.88;0.73;;;;;;;-19.92;52.43;99260.66;5085913;28;20063;-56
2024/01/03 02:33:44;;;;;;;1.88;0.63;;;;;;;-19.94;52.87;99261.28;5081955;28;20048;-58
2024/01/03 02:36:10;;;;;;;0.82;0.65;;;;;;;-19.97;52.82;99271.78;5076878;28;20044;-57
2024/01/03 02:38:36;;;;;;;0.50;0.50;;;;;;;-19.97;52.05;99263.50;5075294;28;20052;-56
2024/01/03 02:41:02;;;;;;;1.58;0.57;;;;;;;-20.29;52.35;99206.66;5077088;28;20048;-55
2024/01/03 02:43:28;;;;;;;0.63;0.52;;;;;;;-19.95;52.44;99276.88;5074955;28;20054;-55
2024/01/03 02:45:54;;;;;;;0.10;0.10;;;;;;;-20.40;52.37;99200.91;5091327;28;20451;-55
2024/01/03 02:48:20;;;;;;;1.45;0.75;;;;;;;-19.99;52.45;99262.53;5057007;28;20081;-54
2024/01/03 02:50:48;;;;;;;1.40;0.77;;;;;;;-20.02;52.95;99268.09;5075230;28;20396;-59
2024/01/03 02:53:17;;;;;;;0.60;0.22;;;;;;;-20.05;52.64;99257.13;5090795;28;20040;-55
2024/01/03 02:55:42;;;;;;;0.38;0.32;;;;;;;-20.09;51.90;99270.00;5075527;28;20044;-57
2024/01/03 02:58:08;;;;;;;0.10;0.10;;;;;;;-20.31;52.57;99233.78;5080370;28;20046;-59
2024/01/03 03:00:36;;;;;;;1.20;0.25;;;;;;;-20.35;52.62;99216.97;5073489;28;20034;-57
2024/01/03 03:03:03;;;;;;;0.38;0.35;;;;;;;-20.11;52.67;99251.72;5073850;28;20039;-58
2024/01/03 03:05:29;;;;;;;1.75;1.15;;;;;;;-20.37;52.92;99213.53;5090703;28;20075;-56
2024/01/03 03:07:55;;;;;;;0.85;0.20;;;;;;;-20.17;52.21;99253.69;5078085;28;20048;-55
2024/01/03 03:10:21;;;;;;;0.60;0.52;;;;;;;-20.18;52.27;99260.25;5078452;28;20045;-56
2024/01/03 03:12:47;;;;;;;1.40;0.85;;;;;;;-20.12;53.03;99264.81;5075971;28;20048;-55
2024/01/03 03:15:13;;;;;;;1.25;1.15;;;;;;;-20.13;51.99;99263.94;5080233;28;20051;-58
2024/01/03 03:17:39;;;;;;;1.83;1.00;;;;;;;-20.10;51.91;99266.66;5073839;28;20059;-57
2024/01/03 03:20:05;;;;;;;0.13;0.13;;;;;;;-20.21;52.20;99256.69;5067705;28;20444;-58
2024/01/03 03:22:31;;;;;;;1.17;0.55;;;;;;;-20.52;52.21;99216.41;5072329;28;20063;-57
2024/01/03 03:24:56;;;;;;;0.20;0.20;;;;;;;-20.25;52.46;99267.94;5054863;28;20071;-54
2024/01/03 03:27:22;;;;;;;2.00;0.80;;;;;;;-20.22;52.47;99269.78;5073726;28;20094;-58
2024/01/03 03:29:49;;;;;;;1.15;0.57;;;;;;;-20.27;51.83;99277.72;5071547;28;20128;-58
2024/01/03 03:32:15;;;;;;;0.40;0.40;;;;;;;-20.29;52.58;99285.72;5071872;28;20393;-59
2024/01/03 03:34:42;;;;;;;0.43;0.28;;;;;;;-20.91;51.78;99187.84;5075108;28;20046;-58
2024/01/03 03:37:08;;;;;;;0.47;0.45;;;;;;;-20.35;51.55;99292.69;5076653;28;20431;-57
2024/01/03 03:39:34;;;;;;;0.88;0.40;;;;;;;-20.92;51.72;99193.50;5055866;28;20036;-59
2024/01/03 03:42:01;;;;;;;3.03;0.88;;;;;;;-20.37;51.72;99301.59;5071417;28;20040;-56
2024/01/03 03:44:27;;;;;;;2.33;1.08;;;;;;;-20.43;51.78;99294.56;5073249;28;20040;-55
2024/01/03 03:46:53;;;;;;;0.85;0.52;;;;;;;-20.41;51.92;99300.53;5081010;28;20046;-59
2024/01/03 03:49:19;;;;;;;2.95;1.20;;;;;;;-20.50;51.76;99271.72;5077817;28;20036;-53
2024/01/03 03:51:45;;;;;;;0.60;0.43;;;;;;;-20.41;52.47;99289.75;5072149;28;20727;-57
2024/01/03 03:54:11;;;;;;;5.40;0.95;;;;;;;-20.63;51.44;99260.03;5084923;28;20173;-58
2024/01/03 03:56:37;;;;;;;2.83;0.52;;;;;;;-20.95;51.74;99213.03;5072489;28;20743;-58
2024/01/03 03:59:03;;;;;;;0.52;0.52;;;;;;;-20.53;52.17;99274.84;5079881;28;20107;-58
2024/01/03 04:01:29;;;;;;;2.13;0.40;;;;;;;-20.39;51.28;99303.09;5084889;28;20028;-56
2024/01/03 04:03:54;;;;;;;0.40;0.40;;;;;;;-20.68;52.12;99261.28;5071075;28;20093;-58
2024/01/03 04:06:20;;;;;;;0.82;0.43;;;;;;;-20.43;52.33;99302.00;5070486;28;20059;-53
2024/01/03 04:08:48;;;;;;;0.30;0.30;;;;;;;-20.69;51.59;99252.13;5079504;28;20169;-59
2024/01/03 04:11:15;;;;;;;0.20;0.15;;;;;;;-20.38;51.89;99307.28;5078304;28;20127;-56
2024/01/03 04:13:41;;;;;;;1.67;1.08;;;;;;;-20.40;51.75;99312.09;5071911;28;20048;-56
2024/01/03 04:16:10;;;;;;;0.75;0.25;;;;;;;-20.38;51.85;99317.19;5073004;28;20480;-57
2024/01/03 04:18:37;;;;;;;0.32;0.32;;;;;;;-20.42;51.86;99300.38;5072912;28;20085;-58
2024/01/03 04:21:05;;;;;;;0.90;0.85;;;;;;;-20.45;51.25;99298.53;5053860;28;20036;-56
2024/01/03 04:23:32;;;;;;;0.13;0.13;;;;;;;-20.74;51.09;99248.44;5081593;28;20488;-56
2024/01/03 04:25:58;;;;;;;0.85;0.65;;;;;;;-20.42;51.34;99307.81;5070209;28;20058;-56
2024/01/03 04:28:24;;;;;;;0.90;0.45;;;;;;;-20.36;51.45;99310.75;5067372;28;20082;-56
2024/01/03 04:30:50;;;;;;;0.63;0.47;;;;;;;-20.38;51.69;99305.69;5073168;28;20055;-57
2024/01/03 04:33:16;;;;;;;0.90;0.47;;;;;;;-20.34;51.29;99299.38;5077638;28;20044;-57
2024/01/03 04:35:42;;;;;;;3.58;0.65;;;;;;;-20.60;51.52;99249.50;5075261;28;20048;-59
2024/01/03 04:38:07;;;;;;;0.10;0.10;;;;;;;-20.31;51.95;99309.50;5065718;28;20089;-57
2024/01/03 04:40:33;;;;;;;1.55;0.75;;;;;;;-20.42;51.12;99300.38;5078339;28;20039;-55
2024/01/03 04:42:59;;;;;;;0.25;0.25;;;;;;;-20.38;51.86;99312.22;5077585;28;20033;-53
2024/01/03 04:45:25;;;;;;;1.63;0.52;;;;;;;-20.39;50.79;99303.09;5072613;28;20105;-56
2024/01/03 04:47:51;;;;;;;0.70;0.55;;;;;;;-20.38;51.50;99304.81;5073544;28;20040;-55
2024/01/03 04:50:17;;;;;;;0.70;0.10;;;;;;;-20.53;51.14;99287.19;5055710;28;20040;-55
2024/01/03 04:52:43;;;;;;;4.65;1.35;;;;;;;-20.40;51.50;99299.75;5068436;28;20129;-54
2024/01/03 04:55:10;;;;;;;0.73;0.43;;;;;;;-20.37;51.05;99309.88;5083417;28;20093;-58
2024/01/03 04:57:36;;;;;;;0.75;0.50;;;;;;;-20.44;51.15;99309.28;5081049;28;20036;-57
2024/01/03 05:00:04;;;;;;;0.32;0.32;;;;;;;-20.48;51.26;99299.91;5066962;28;20174;-57
2024/01/03 05:02:32;;;;;;;0.08;0.08;;;;;;;-20.72;51.30;99272.50;5079150;28;20047;-58
2024/01/03 05:04:58;;;;;;;0.00;0.00;;;;;;;-20.56;51.21;99304.22;5083453;28;20109;-54
2024/01/03 05:07:24;;;;;;;1.67;1.00;;;;;;;-20.53;50.81;99306.94;5068104;28;20044;-58
2024/01/03 05:09:50;;;;;;;0.17;0.00;;;;;;;-20.49;51.63;99305.56;5082620;28;20707;-57
2024/01/03 05:12:17;;;;;;;1.23;0.88;;;;;;;-20.51;51.42;99310.38;5086829;28;20123;-55
2024/01/03 05:14:42;;;;;;;1.98;0.77;;;;;;;-20.57;50.83;99309.06;5088748;28;20476;-58
2024/01/03 05:17:08;;;;;;;2.85;0.93;;;;;;;-20.61;51.37;99297.19;5088271;28;20052;-56
2024/01/03 05:19:34;;;;;;;0.15;0.15;;;;;;;-20.60;50.66;99314.59;5080701;28;20044;-66
2024/01/03 05:22:00;;;;;;;0.43;0.15;;;;;;;-20.65;51.26;99308.44;5081402;28;20040;-53
2024/01/03 05:24:27;;;;;;;0.38;0.32;;;;;;;-20.91;51.05;99264.38;5092605;28;20127;-54
2024/01/03 05:26:53;;;;;;;1.35;0.52;;;;;;;-20.59;50.65;99310.53;5070927;28;20039;-54
2024/01/03 05:29:19;;;;;;;0.77;0.40;;;;;;;-20.60;51.07;99313.72;5086001;28;20043;-55
2024/01/03 05:31:45;;;;;;;2.88;0.22;;;;;;;-20.66;50.77;99306.69;5085213;28;20040;-58
2024/01/03 05:34:11;;;;;;;0.22;0.20;;;;;;;-20.65;50.68;99305.97;5084867;28;20048;-54
2024/01/03 05:36:38;;;;;;;1.35;0.70;;;;;;;-20.92;51.13;99274.97;5088868;28;20056;-54
2024/01/03 05:39:04;;;;;;;2.33;1.20;;;;;;;-20.60;50.64;99313.72;5078861;28;20040;-57
2024/01/03 05:41:30;;;;;;;3.45;0.75;;;;;;;-20.63;50.68;99302.03;5074469;28;20036;-57
2024/01/03 05:43:56;;;;;;;0.00;0.00;;;;;;;-20.63;51.07;99306.09;5081664;28;20525;-56
2024/01/03 05:46:21;;;;;;;0.13;0.10;;;;;;;-20.89;50.84;99257.97;5082312;28;20044;-58
2024/01/03 05:48:48;;;;;;;0.63;0.63;;;;;;;-20.75;50.88;99284.59;5085636;28;20040;-57
2024/01/03 05:51:15;;;;;;;0.00;0.00;;;;;;;-20.64;50.83;99299.41;5080390;28;20068;-58
2024/01/03 05:53:46;;;;;;;0.40;0.40;;;;;;;-20.67;50.78;99306.59;5071379;28;20044;-59
2024/01/03 05:56:14;;;;;;;1.15;1.05;;;;;;;-20.65;51.10;99305.09;5075607;28;20794;-56
2024/01/03 05:58:42;;;;;;;0.93;0.45;;;;;;;-20.91;51.32;99258.56;5082071;28;20035;-60
2024/01/03 06:01:11;;;;;;;0.00;0.00;;;;;;;-20.56;51.52;99305.84;5067662;28;20036;-53
2024/01/03 06:03:38;;;;;;;0.60;0.05;;;;;;;-20.61;51.58;99302.13;5074361;28;20043;-52
2024/01/03 06:06:03;;;;;;;0.95;0.30;;;;;;;-20.60;51.42;99303.84;5083664;28;20056;-54
2024/01/03 06:08:29;;;;;;;2.03;0.98;;;;;;;-20.57;51.70;99309.06;5082066;28;20515;-58
2024/01/03 06:10:55;;;;;;;3.90;0.98;;;;;;;-20.77;51.50;99270.41;5069726;28;20037;-55
2024/01/03 06:13:22;;;;;;;0.63;0.43;;;;;;;-20.50;51.20;99309.66;5083610;28;20044;-60
2024/01/03 06:15:48;;;;;;;8.10;1.42;;;;;;;-20.43;51.39;99315.94;5067892;28;20043;-57
2024/01/03 06:18:14;;;;;;;0.50;0.30;;;;;;;-20.32;51.39;99323.47;5087222;28;20039;-58
2024/01/03 06:20:40;;;;;;;3.85;1.55;;;;;;;-20.31;50.84;99299.63;5081445;28;20063;-57
2024/01/03 06:23:07;;;;;;;3.30;1.00;;;;;;;-20.21;51.49;99316.88;5085279;28;20036;-58
2024/01/03 06:25:33;;;;;;;2.10;1.02;;;;;;;-20.22;51.41;99302.78;5082823;28;20035;-58
2024/01/03 06:27:59;;;;;;;3.92;1.23;;;;;;;-20.10;50.47;99308.69;5097928;28;20033;-58
2024/01/03 06:30:25;;;;;;;0.50;0.47;;;;;;;-19.99;51.50;99312.00;5069095;28;20044;-58
2024/01/03 06:32:51;;;;;;;4.40;0.88;;;;;;;-19.94;50.17;99315.69;5089412;28;20626;-59
2024/01/03 06:35:17;;;;;;;0.82;0.65;;;;;;;-19.86;51.54;99317.13;5087116;28;20063;-59
2024/01/03 06:37:43;;;;;;;1.08;0.45;;;;;;;-19.78;50.50;99316.13;5085986;28;20070;-57
2024/01/03 06:40:09;;;;;;;1.15;0.35;;;;;;;-19.72;50.36;99320.66;5088252;28;20036;-56
2024/01/03 06:42:35;;;;;;;1.80;0.98;;;;;;;-19.77;50.52;99295.56;5085423;28;20150;-57
2024/01/03 06:45:01;;;;;;;0.57;0.57;;;;;;;-19.60;50.54;99317.53;5084612;28;20528;-58
2024/01/03 06:47:31;;;;;;;0.73;0.68;;;;;;;-19.52;50.51;99325.53;5068193;28;20089;-52
2024/01/03 06:49:57;;;;;;;2.33;0.88;;;;;;;-19.46;50.42;99311.13;5081368;28;20059;-56
2024/01/03 06:52:23;;;;;;;2.42;1.77;;;;;;;-19.41;50.08;99325.53;5086287;28;20047;-53
2024/01/03 06:54:49;;;;;;;1.60;0.65;;;;;;;-19.51;49.94;99278.63;5085734;28;20040;-58
2024/01/03 06:57:16;;;;;;;2.60;0.60;;;;;;;-19.10;50.21;99327.88;5068139;28;20477;-56
2024/01/03 06:59:42;;;;;;;0.57;0.20;;;;;;;-19.00;50.21;99327.81;5081715;28;20046;-59
2024/01/03 07:02:08;;;;;;;0.00;0.00;;;;;;;-19.12;49.67;99294.69;5077641;28;20127;-59
2024/01/03 07:04:34;;;;;;;0.80;0.60;;;;;;;-18.83;50.11;99316.63;5081396;28;20032;-59
2024/01/03 07:07:00;;;;;;;9.00;1.88;;;;;;;-18.80;49.97;99300.41;5084170;28;20051;-58
2024/01/03 07:09:26;;;;;;;1.20;1.10;;;;;;;-18.58;49.83;99312.75;5084324;28;20478;-58
2024/01/03 07:11:53;;;;;;;0.75;0.60;;;;;;;-18.47;49.45;99319.28;5067679;28;20063;-58
2024/01/03 07:14:19;;;;;;;0.38;0.38;;;;;;;-18.55;49.20;99281.59;5082111;28;20043;-58
2024/01/03 07:16:46;;;;;;;2.60;0.93;;;;;;;-18.70;48.78;99222.63;5066478;28;20048;-57
2024/01/03 07:19:12;;;;;;;1.75;0.77;;;;;;;-18.17;48.86;99309.09;5092682;28;20036;-57
2024/01/03 07:21:38;;;;;;;2.22;1.25;;;;;;;-18.04;48.45;99317.38;5056356;28;20036;-59
2024/01/03 07:24:05;;;;;;;0.50;0.50;;;;;;;-17.97;48.24;99312.97;5068130;28;20523;-58
2024/01/03 07:26:31;;;;;;;0.90;0.60;;;;;;;-17.85;48.37;99310.50;5086304;28;20170;-56
2024/01/03 07:28:57;;;;;;;4.47;1.35;;;;;;;-18.00;48.33;99274.69;5068042;28;20043;-55
2024/01/03 07:31:24;;;;;;;0.98;0.20;;;;;;;-17.68;47.93;99317.47;5083485;28;20040;-56
2024/01/03 07:33:50;;;;;;;1.25;0.65;;;;;;;-17.67;47.99;99320.06;5068957;28;20515;-57
2024/01/03 07:36:16;;;;;;;1.92;0.57;;;;;;;-17.74;47.52;99320.38;5083832;28;20040;-56
2024/01/03 07:38:44;;;;;;;3.42;0.90;;;;;;;-17.69;47.68;99319.09;5084339;28;20031;-57
2024/01/03 07:41:10;;;;;;;8.50;2.42;;;;;;;-17.72;47.94;99295.69;5077358;28;20047;-55
2024/01/03 07:43:37;;;;;;;0.25;0.25;;;;;;;-17.76;47.68;99289.66;5084428;28;20056;-56
2024/01/03 07:46:03;;;;;;;3.72;1.17;;;;;;;-17.58;47.41;99324.75;5054536;28;20059;-55
2024/01/03 07:48:30;;;;;;;2.72;1.40;;;;;;;-17.64;47.64;99318.56;5082620;28;20063;-56
2024/01/03 07:50:55;;;;;;;2.55;0.68;;;;;;;-17.55;47.73;99319.16;5091304;28;20052;-56
2024/01/03 07:53:22;;;;;;;0.32;0.22;;;;;;;-17.46;47.69;99312.31;5068975;28;20045;-59
2024/01/03 07:55:48;;;;;;;3.15;1.20;;;;;;;-17.43;47.28;99313.41;5067984;28;20045;-57
2024/01/03 07:58:14;;;;;;;2.45;0.70;;;;;;;-17.34;47.46;99318.13;5097220;28;20047;-58
2024/01/03 08:00:40;;;;;;;2.20;0.88;;;;;;;-17.27;47.22;99311.19;5078653;28;20050;-54
2024/01/03 08:03:06;;;;;;;1.85;0.85;;;;;;;-17.19;47.15;99308.38;5078978;28;20043;-59
2024/01/03 08:05:33;;;;;;;1.58;0.77;;;;;;;-17.51;46.89;99254.06;5073917;28;20127;-55
2024/01/03 08:07:59;;;;;;;0.25;0.15;;;;;;;-17.24;46.94;99313.91;5071833;28;20040;-54
2024/01/03 08:10:25;;;;;;;2.13;1.10;;;;;;;-17.28;46.81;99306.13;5059873;28;20040;-52
2024/01/03 08:12:51;;;;;;;1.20;1.10;;;;;;;-17.32;46.90;99301.72;5069682;28;20055;-56
2024/01/03 08:15:17;;;;;;;0.93;0.77;;;;;;;-17.24;46.59;99303.97;5048097;28;20048;-53
2024/01/03 08:17:44;;;;;;;1.48;1.38;;;;;;;-17.40;46.80;99260.59;5073172;28;20049;-52
2024/01/03 08:20:10;;;;;;;1.58;0.80;;;;;;;-17.20;46.47;99295.09;5031777;28;20044;-56
2024/01/03 08:22:36;;;;;;;1.38;0.95;;;;;;;-17.22;46.22;99299.97;5071652;28;20037;-56
2024/01/03 08:25:03;;;;;;;1.02;0.15;;;;;;;-17.43;46.71;99278.66;5076551;28;20063;-59
2024/01/03 08:27:32;;;;;;;2.92;1.30;;;;;;;-17.33;46.45;99295.03;5077418;28;20040;-57
2024/01/03 08:29:58;;;;;;;1.17;0.73;;;;;;;-17.28;46.37;99293.72;5068764;28;20575;-57
2024/01/03 08:32:25;;;;;;;0.70;0.65;;;;;;;-17.20;46.25;99300.06;5077940;28;20573;-58
2024/01/03 08:34:51;;;;;;;1.27;0.82;;;;;;;-17.31;46.48;99284.44;5080960;28;20054;-53
2024/01/03 08:37:17;;;;;;;0.55;0.45;;;;;;;-17.23;46.54;99285.81;5079952;28;20041;-58
2024/01/03 08:39:43;;;;;;;3.08;1.25;;;;;;;-17.25;46.70;99259.16;5085095;28;20048;-57
2024/01/03 08:42:09;;;;;;;1.00;0.90;;;;;;;-17.13;46.59;99259.97;5091622;28;20527;-51
2024/01/03 08:44:35;;;;;;;1.33;1.00;;;;;;;-16.92;46.29;99281.25;5089468;28;20055;-55
2024/01/03 08:47:02;;;;;;;4.28;1.88;;;;;;;-16.84;45.99;99282.59;5084035;28;20047;-57
2024/01/03 08:49:28;;;;;;;0.82;0.57;;;;;;;-16.84;45.94;99280.13;5069863;28;20040;-58
2024/01/03 08:51:57;;;;;;;3.20;1.50;;;;;;;-17.01;46.25;99238.41;5079851;28;20099;-54
2024/01/03 08:54:24;;;;;;;0.10;0.10;;;;;;;-16.71;45.69;99279.31;5075777;28;20543;-60
2024/01/03 08:56:50;;;;;;;2.33;0.57;;;;;;;-16.96;46.29;99251.16;5077850;28;20048;-57
2024/01/03 08:59:20;;;;;;;3.83;1.48;;;;;;;-17.13;46.28;99206.94;5085181;28;20050;-56
2024/01/03 09:01:51;;;;;;;2.25;0.73;;;;;;;-16.55;45.63;99284.47;5088503;28;20035;-54
2024/01/03 09:04:17;;;;;;;1.77;1.35;;;;;;;-16.53;45.55;99270.50;5089165;28;20036;-57
2024/01/03 09:06:43;;;;;;;4.70;1.00;;;;;;;-16.48;45.95;99279.13;5087083;28;20051;-59
2024/01/03 09:09:09;;;;;;;2.95;1.38;;;;;;;-16.31;45.23;99284.31;5089319;28;20040;-58
2024/01/03 09:11:36;;;;;;;2.65;1.05;;;;;;;-16.16;45.16;99273.69;5084840;28;20044;-54
2024/01/03 09:14:02;;;;;;;1.67;0.90;;;;;;;-16.09;45.50;99274.94;5076038;28;20046;-55
2024/01/03 09:16:32;;;;;;;1.73;1.02;;;;;;;-16.45;45.40;99206.34;5068765;28;20097;-53
2024/01/03 09:18:58;;;;;;;4.18;1.83;;;;;;;-15.97;44.65;99273.25;5085914;28;20054;-55
2024/01/03 09:21:26;;;;;;;2.42;1.67;;;;;;;-15.77;44.40;99270.34;5077428;28;20163;-55
2024/01/03 09:23:53;;;;;;;3.40;1.20;;;;;;;-15.59;45.07;99263.97;5060765;28;20047;-59
2024/01/03 09:26:24;;;;;;;3.38;1.02;;;;;;;-15.23;44.55;99255.34;5074891;28;20044;-55
2024/01/03 09:28:51;;;;;;;4.55;2.17;;;;;;;-15.07;44.75;99250.47;5073349;28;20813;-60
2024/01/03 09:31:18;;;;;;;5.65;1.90;;;;;;;-15.22;44.20;99254.56;5083891;28;20158;-61
2024/01/03 09:33:44;;;;;;;2.58;1.50;;;;;;;-15.32;44.49;99236.47;5076708;28;20053;-61
2024/01/03 09:36:20;;;;;;;3.17;1.20;;;;;;;-15.34;43.56;99243.88;5048856;28;20139;-58
2024/01/03 09:38:47;;;;;;;1.65;1.25;;;;;;;-15.39;44.97;99259.31;5079563;28;20137;-54
2024/01/03 09:41:14;;;;;;;5.55;1.67;;;;;;;-15.45;43.89;99252.34;5076978;28;20032;-55
2024/01/03 09:43:44;;;;;;;7.82;1.08;;;;;;;-15.35;44.12;99251.25;5075939;28;20110;-56
2024/01/03 09:46:13;;;;;;;5.00;1.02;;;;;;;-15.27;43.98;99255.03;5075214;28;20082;-54
2024/01/03 09:48:41;;;;;;;3.35;1.33;;;;;;;-15.30;43.42;99235.81;5068576;28;20542;-57
2024/01/03 09:51:08;;;;;;;7.47;2.20;;;;;;;-15.30;44.13;99247.41;5066270;28;20068;-56
2024/01/03 09:53:35;;;;;;;4.55;1.52;;;;;;;-15.59;44.17;99199.22;5084179;28;20426;-54
2024/01/03 09:56:01;;;;;;;7.45;2.00;;;;;;;-15.34;43.81;99241.38;5057756;28;20052;-56
2024/01/03 09:58:28;;;;;;;4.30;1.88;;;;;;;-15.37;43.73;99236.22;5057380;28;20062;-62
2024/01/03 10:00:55;;;;;;;5.32;2.95;;;;;;;-15.76;43.89;99197.38;5057553;28;20458;-57
2024/01/03 10:03:21;;;;;;;8.10;2.45;;;;;;;-15.62;44.60;99243.88;5082859;28;20109;-54
2024/01/03 10:06:04;;;;;;;5.53;2.35;;;;;;;-15.72;44.90;99254.06;5082395;28;20050;-58
2024/01/03 10:08:31;;;;;;;4.65;2.65;;;;;;;-15.89;44.75;99211.47;5063310;28;20508;-56
2024/01/03 10:10:57;;;;;;;6.78;2.45;;;;;;;-15.53;44.10;99246.06;5077323;28;20043;-62
2024/01/03 10:13:24;;;;;;;4.82;2.22;;;;;;;-15.50;44.49;99242.09;5077347;28;20060;-57
2024/01/03 10:15:50;;;;;;;3.22;1.65;;;;;;;-15.51;44.53;99239.56;5075272;28;20565;-56
2024/01/03 10:18:17;;;;;;;5.25;2.28;;;;;;;-15.59;44.63;99241.56;5074871;28;20040;-52
2024/01/03 10:20:44;;;;;;;4.57;1.70;;;;;;;-15.89;44.60;99207.34;5076325;28;20044;-58
2024/01/03 10:23:14;;;;;;;5.35;2.38;;;;;;;-16.01;45.04;99196.63;5076098;28;20040;-55
2024/01/03 10:25:43;;;;;;;6.47;2.13;;;;;;;-15.78;45.22;99238.75;5056000;28;20044;-53
2024/01/03 10:28:16;;;;;;;4.32;1.77;;;;;;;-15.88;45.13;99220.66;5056934;28;20047;-60
2024/01/03 10:30:43;;;;;;;3.33;1.40;;;;;;;-15.83;45.14;99235.13;5064585;28;20048;-55
2024/01/03 10:33:09;;;;;;;3.70;1.73;;;;;;;-15.89;45.50;99231.38;5085912;28;20492;-61
2024/01/03 10:35:37;;;;;;;3.15;1.33;;;;;;;-15.96;44.77;99218.56;5067157;28;20040;-58
2024/01/03 10:38:04;;;;;;;2.78;1.50;;;;;;;-16.02;44.90;99232.28;5064990;28;20503;-57
2024/01/03 10:40:40;;;;;;;3.35;1.40;;;;;;;-16.01;45.49;99229.84;5082441;28;20067;-58
2024/01/03 10:43:08;;;;;;;4.38;1.77;;;;;;;-16.10;44.99;99224.31;5082585;28;20039;-58
2024/01/03 10:45:34;;;;;;;3.25;1.38;;;;;;;-16.01;45.69;99219.03;5083906;28;20044;-57
2024/01/03 10:48:00;;;;;;;6.53;2.58;;;;;;;-16.15;44.87;99193.31;5075283;28;20071;-56
2024/01/03 10:50:28;;;;;;;4.22;1.42;;;;;;;-16.00;45.93;99224.13;5091399;28;20063;-58
2024/01/03 10:52:58;;;;;;;3.08;1.00;;;;;;;-14.99;45.40;99217.66;5074874;28;20082;-58
2024/01/03 10:55:33;;;;;;;12.95;2.33;;;;;;;-13.15;43.94;99211.03;5080986;28;20035;-53
2024/01/03 10:58:01;;;;;;;4.03;1.67;;;;;;;-11.57;42.13;99218.56;5086544;28;20043;-58
2024/01/03 11:00:53;;;;;;;2.97;1.33;;;;;;;-10.40;40.50;99217.75;5085118;28;20045;-61
2024/01/03 11:03:37;;;;;;;2.95;1.17;;;;;;;-9.75;39.76;99213.56;5086379;28;20043;-59
2024/01/03 11:06:22;;;;;;;3.22;2.05;;;;;;;-9.06;38.81;99192.63;5071658;28;20522;-59
2024/01/03 11:08:51;;;;;;;6.22;1.77;;;;;;;-8.05;37.74;99209.38;5052347;28;20078;-60
2024/01/03 11:11:36;;;;;;;6.93;2.25;;;;;;;-7.64;37.68;99219.06;5080451;28;20570;-58
2024/01/03 11:14:26;;;;;;;4.20;2.08;;;;;;;-6.78;36.47;99214.78;5058199;28;20136;-58
2024/01/03 11:16:52;;;;;;;;;;;;;;;-6.38;35.79;99209.09;5072743;28;20044;-59
2024/01/03 11:19:28;;;;;;;3.17;1.48;;;;;;;-6.16;35.40;99198.66;5073694;28;20615;-61
2024/01/03 11:21:54;;;;;;;13.30;2.70;;;;;;;-6.10;35.59;99206.41;5074889;28;20039;-55
2024/01/03 11:24:19;;;;;;;13.02;2.72;;;;;;;-6.17;35.45;99200.34;5088712;28;20040;-55
2024/01/03 11:26:55;;;;;;;6.85;2.13;;;;;;;-5.88;35.20;99202.69;5081200;28;20511;-54